Burtonsville, New York
Current Conditions -  °F | °C
As of 5:15 AM on Monday 26 Jan 2015 (Local Time) from KNY0 Reporting Station
Clear Clear  
Wind Chill: -8°   Ceiling: Unl
Heat Index:   Visibility: 10mi
Dew Point: -6°   Wind: 5mph
Humidity: 71%   Direction: 50°NE
Pressure: 30.04"   Gusts: NA
Location:  42.7904°N, 74.3145°W
Report Text: KNY0 261015Z AUTO 05004KT 10SM CLR M17/M21 A3004 RMK AO2 T11701212
Loading
Personal Weather Stations






























Interactive Weather Map New forecast layout! Learn more

10-Day Weather Forecast

Advertisements
Track Severe Weather on mobile